sensor_id;sensor_type;location;lat;lon;timestamp;temperature;humidity
14529;DHT22;7351;51.194;4.098;2023-01-04T00:01:57;9.90;99.90
14529;DHT22;7351;51.194;4.098;2023-01-04T00:04:25;9.80;99.90
14529;DHT22;7351;51.194;4.098;2023-01-04T00:06:52;9.90;99.90
14529;DHT22;7351;51.194;4.098;2023-01-04T00:09:19;9.90;99.90
14529;DHT22;7351;51.194;4.098;2023-01-04T00:11:46;9.90;99.90
14529;DHT22;7351;51.194;4.098;2023-01-04T00:14:14;10.00;99.90
14529;DHT22;7351;51.194;4.098;2023-01-04T00:16:41;10.00;99.90
14529;DHT22;7351;51.194;4.098;2023-01-04T00:19:10;10.10;99.90
14529;DHT22;7351;51.194;4.098;2023-01-04T00:21:38;10.10;99.90
14529;DHT22;7351;51.194;4.098;2023-01-04T00:24:06;10.10;99.90
14529;DHT22;7351;51.194;4.098;2023-01-04T00:26:34;10.10;99.90
14529;DHT22;7351;51.194;4.098;2023-01-04T00:29:03;10.20;99.90
14529;DHT22;7351;51.194;4.098;2023-01-04T00:31:31;10.10;99.90
14529;DHT22;7351;51.194;4.098;2023-01-04T00:33:59;10.20;99.90
14529;DHT22;7351;51.194;4.098;2023-01-04T00:36:27;10.20;99.90
14529;DHT22;7351;51.194;4.098;2023-01-04T00:38:57;10.20;99.90
14529;DHT22;7351;51.194;4.098;2023-01-04T00:41:34;10.30;99.90
14529;DHT22;7351;51.194;4.098;2023-01-04T00:44:01;10.30;99.90
14529;DHT22;7351;51.194;4.098;2023-01-04T00:46:29;10.40;99.90
14529;DHT22;7351;51.194;4.098;2023-01-04T00:48:56;10.50;99.90
14529;DHT22;7351;51.194;4.098;2023-01-04T00:51:23;10.50;99.90
14529;DHT22;7351;51.194;4.098;2023-01-04T00:53:51;10.40;99.90
14529;DHT22;7351;51.194;4.098;2023-01-04T00:56:19;10.40;99.90
14529;DHT22;7351;51.194;4.098;2023-01-04T00:58:46;10.50;99.90
14529;DHT22;7351;51.194;4.098;2023-01-04T01:01:13;10.40;99.90
14529;DHT22;7351;51.194;4.098;2023-01-04T01:03:40;10.40;99.90
14529;DHT22;7351;51.194;4.098;2023-01-04T01:06:12;10.50;99.90
14529;DHT22;7351;51.194;4.098;2023-01-04T01:08:39;10.50;99.90
14529;DHT22;7351;51.194;4.098;2023-01-04T01:11:08;10.50;99.90
14529;DHT22;7351;51.194;4.098;2023-01-04T01:13:37;10.50;99.90
14529;DHT22;7351;51.194;4.098;2023-01-04T01:16:06;10.50;99.90
14529;DHT22;7351;51.194;4.098;2023-01-04T01:18:34;10.50;99.90
14529;DHT22;7351;51.194;4.098;2023-01-04T01:21:04;10.60;99.90
14529;DHT22;7351;51.194;4.098;2023-01-04T01:23:31;10.50;99.90
14529;DHT22;7351;51.194;4.098;2023-01-04T01:25:59;10.50;99.90
14529;DHT22;7351;51.194;4.098;2023-01-04T01:28:27;10.60;99.90
14529;DHT22;7351;51.194;4.098;2023-01-04T01:30:55;10.60;99.90
14529;DHT22;7351;51.194;4.098;2023-01-04T01:33:24;10.60;99.90
14529;DHT22;7351;51.194;4.098;2023-01-04T01:35:51;10.50;99.90
14529;DHT22;7351;51.194;4.098;2023-01-04T01:38:18;10.60;99.90
14529;DHT22;7351;51.194;4.098;2023-01-04T01:40:45;10.60;99.90
14529;DHT22;7351;51.194;4.098;2023-01-04T01:43:17;10.50;99.90
14529;DHT22;7351;51.194;4.098;2023-01-04T01:45:46;10.60;99.90
14529;DHT22;7351;51.194;4.098;2023-01-04T01:48:20;10.70;99.90
14529;DHT22;7351;51.194;4.098;2023-01-04T01:50:51;10.70;99.90
14529;DHT22;7351;51.194;4.098;2023-01-04T01:53:19;10.60;99.90
14529;DHT22;7351;51.194;4.098;2023-01-04T01:55:48;10.80;99.90
14529;DHT22;7351;51.194;4.098;2023-01-04T01:58:21;10.70;99.90
14529;DHT22;7351;51.194;4.098;2023-01-04T02:00:49;10.80;99.90
14529;DHT22;7351;51.194;4.098;2023-01-04T02:03:19;10.80;99.90
14529;DHT22;7351;51.194;4.098;2023-01-04T02:05:50;10.80;99.90
14529;DHT22;7351;51.194;4.098;2023-01-04T02:08:19;10.80;99.90
14529;DHT22;7351;51.194;4.098;2023-01-04T02:10:48;10.80;99.90
14529;DHT22;7351;51.194;4.098;2023-01-04T02:13:17;10.20;99.90
14529;DHT22;7351;51.194;4.098;2023-01-04T02:15:56;10.80;99.90
14529;DHT22;7351;51.194;4.098;2023-01-04T02:18:33;10.80;99.90
14529;DHT22;7351;51.194;4.098;2023-01-04T02:21:07;10.80;99.90
14529;DHT22;7351;51.194;4.098;2023-01-04T02:24:14;10.90;99.90
14529;DHT22;7351;51.194;4.098;2023-01-04T02:27:06;10.90;99.90
14529;DHT22;7351;51.194;4.098;2023-01-04T02:30:08;10.90;99.90
14529;DHT22;7351;51.194;4.098;2023-01-04T02:32:45;10.90;99.90
14529;DHT22;7351;51.194;4.098;2023-01-04T02:35:20;10.90;99.90
14529;DHT22;7351;51.194;4.098;2023-01-04T02:37:56;10.90;99.90
14529;DHT22;7351;51.194;4.098;2023-01-04T02:40:29;10.90;99.90
14529;DHT22;7351;51.194;4.098;2023-01-04T02:43:03;11.00;99.90
14529;DHT22;7351;51.194;4.098;2023-01-04T02:45:54;11.00;99.90
14529;DHT22;7351;51.194;4.098;2023-01-04T02:48:27;10.90;99.90
14529;DHT22;7351;51.194;4.098;2023-01-04T02:51:28;10.90;99.90
14529;DHT22;7351;51.194;4.098;2023-01-04T02:53:57;11.00;99.90
14529;DHT22;7351;51.194;4.098;2023-01-04T02:56:32;11.00;99.90
14529;DHT22;7351;51.194;4.098;2023-01-04T02:59:15;11.10;99.90
14529;DHT22;7351;51.194;4.098;2023-01-04T03:01:50;11.00;99.90
14529;DHT22;7351;51.194;4.098;2023-01-04T03:04:51;11.00;99.90
14529;DHT22;7351;51.194;4.098;2023-01-04T03:07:46;11.00;99.90
14529;DHT22;7351;51.194;4.098;2023-01-04T03:10:20;11.10;99.90
14529;DHT22;7351;51.194;4.098;2023-01-04T03:12:52;11.10;99.90
14529;DHT22;7351;51.194;4.098;2023-01-04T03:15:22;11.10;99.90
14529;DHT22;7351;51.194;4.098;2023-01-04T03:17:53;11.10;99.90
14529;DHT22;7351;51.194;4.098;2023-01-04T03:20:26;11.10;99.90
14529;DHT22;7351;51.194;4.098;2023-01-04T03:22:57;11.10;99.90
14529;DHT22;7351;51.194;4.098;2023-01-04T03:25:45;11.10;99.90
14529;DHT22;7351;51.194;4.098;2023-01-04T03:28:33;11.10;99.90
14529;DHT22;7351;51.194;4.098;2023-01-04T03:31:34;11.00;99.90
14529;DHT22;7351;51.194;4.098;2023-01-04T03:34:21;11.10;99.90
14529;DHT22;7351;51.194;4.098;2023-01-04T03:37:12;11.90;99.90
14529;DHT22;7351;51.194;4.098;2023-01-04T03:39:52;11.10;99.90
14529;DHT22;7351;51.194;4.098;2023-01-04T03:42:43;11.10;99.90
14529;DHT22;7351;51.194;4.098;2023-01-04T03:45:31;11.10;99.90
14529;DHT22;7351;51.194;4.098;2023-01-04T03:48:21;11.20;99.90
14529;DHT22;7351;51.194;4.098;2023-01-04T03:51:02;11.10;99.90
14529;DHT22;7351;51.194;4.098;2023-01-04T03:53:35;11.30;99.90
14529;DHT22;7351;51.194;4.098;2023-01-04T03:56:05;11.30;99.90
14529;DHT22;7351;51.194;4.098;2023-01-04T03:58:33;11.40;99.90
14529;DHT22;7351;51.194;4.098;2023-01-04T04:01:01;11.30;99.90
14529;DHT22;7351;51.194;4.098;2023-01-04T04:03:29;11.30;99.90
14529;DHT22;7351;51.194;4.098;2023-01-04T04:06:14;11.30;99.90
14529;DHT22;7351;51.194;4.098;2023-01-04T04:09:00;11.40;99.90
14529;DHT22;7351;51.194;4.098;2023-01-04T04:11:27;11.40;99.90
14529;DHT22;7351;51.194;4.098;2023-01-04T04:13:58;11.40;99.90
14529;DHT22;7351;51.194;4.098;2023-01-04T04:16:26;10.80;99.90
14529;DHT22;7351;51.194;4.098;2023-01-04T04:18:53;11.40;99.90
14529;DHT22;7351;51.194;4.098;2023-01-04T04:21:21;11.40;99.90
14529;DHT22;7351;51.194;4.098;2023-01-04T04:23:48;11.50;99.90
14529;DHT22;7351;51.194;4.098;2023-01-04T04:26:17;11.50;99.90
14529;DHT22;7351;51.194;4.098;2023-01-04T04:28:44;11.50;99.90
14529;DHT22;7351;51.194;4.098;2023-01-04T04:31:11;11.50;99.90
14529;DHT22;7351;51.194;4.098;2023-01-04T04:33:38;11.50;99.90
14529;DHT22;7351;51.194;4.098;2023-01-04T04:36:06;11.50;99.90
14529;DHT22;7351;51.194;4.098;2023-01-04T04:38:34;11.50;99.90
14529;DHT22;7351;51.194;4.098;2023-01-04T04:41:06;11.50;99.90
14529;DHT22;7351;51.194;4.098;2023-01-04T04:43:52;11.60;99.90
14529;DHT22;7351;51.194;4.098;2023-01-04T04:46:19;11.60;99.90
14529;DHT22;7351;51.194;4.098;2023-01-04T04:48:46;11.60;99.90
14529;DHT22;7351;51.194;4.098;2023-01-04T04:51:13;11.60;99.90
14529;DHT22;7351;51.194;4.098;2023-01-04T04:53:40;11.70;99.90
14529;DHT22;7351;51.194;4.098;2023-01-04T04:56:08;11.60;99.90
14529;DHT22;7351;51.194;4.098;2023-01-04T04:58:35;11.60;99.90
14529;DHT22;7351;51.194;4.098;2023-01-04T05:01:04;11.60;99.90
14529;DHT22;7351;51.194;4.098;2023-01-04T05:03:31;11.60;99.90
14529;DHT22;7351;51.194;4.098;2023-01-04T05:05:59;11.60;99.90
14529;DHT22;7351;51.194;4.098;2023-01-04T05:08:26;11.70;99.90
14529;DHT22;7351;51.194;4.098;2023-01-04T05:10:53;11.70;99.90
14529;DHT22;7351;51.194;4.098;2023-01-04T05:13:20;11.60;99.90
14529;DHT22;7351;51.194;4.098;2023-01-04T05:15:48;11.70;99.90
14529;DHT22;7351;51.194;4.098;2023-01-04T05:18:18;11.70;99.90
14529;DHT22;7351;51.194;4.098;2023-01-04T05:20:46;11.70;99.90
14529;DHT22;7351;51.194;4.098;2023-01-04T05:23:14;11.70;99.90
14529;DHT22;7351;51.194;4.098;2023-01-04T05:25:41;11.70;99.90
14529;DHT22;7351;51.194;4.098;2023-01-04T05:28:09;11.80;99.90
14529;DHT22;7351;51.194;4.098;2023-01-04T05:30:36;11.80;99.90
14529;DHT22;7351;51.194;4.098;2023-01-04T05:33:21;11.80;99.90
14529;DHT22;7351;51.194;4.098;2023-01-04T05:35:49;11.80;99.90
14529;DHT22;7351;51.194;4.098;2023-01-04T05:38:16;11.80;99.90
14529;DHT22;7351;51.194;4.098;2023-01-04T05:40:43;11.80;99.90
14529;DHT22;7351;51.194;4.098;2023-01-04T05:43:11;11.80;99.90
14529;DHT22;7351;51.194;4.098;2023-01-04T05:45:39;11.80;99.90
14529;DHT22;7351;51.194;4.098;2023-01-04T05:48:06;11.80;99.90
14529;DHT22;7351;51.194;4.098;2023-01-04T05:50:34;11.80;99.90
14529;DHT22;7351;51.194;4.098;2023-01-04T05:53:01;11.80;99.90
14529;DHT22;7351;51.194;4.098;2023-01-04T05:55:28;11.70;99.90
14529;DHT22;7351;51.194;4.098;2023-01-04T05:57:55;11.70;99.90
14529;DHT22;7351;51.194;4.098;2023-01-04T06:00:23;11.70;99.90
14529;DHT22;7351;51.194;4.098;2023-01-04T06:02:50;11.70;99.90
14529;DHT22;7351;51.194;4.098;2023-01-04T06:05:20;11.70;99.90
14529;DHT22;7351;51.194;4.098;2023-01-04T06:07:49;11.60;99.90
14529;DHT22;7351;51.194;4.098;2023-01-04T06:10:17;11.70;99.90
14529;DHT22;7351;51.194;4.098;2023-01-04T06:12:45;11.60;99.90
14529;DHT22;7351;51.194;4.098;2023-01-04T06:15:12;11.70;99.90
14529;DHT22;7351;51.194;4.098;2023-01-04T06:17:40;11.70;99.90
14529;DHT22;7351;51.194;4.098;2023-01-04T06:20:09;11.70;99.90
14529;DHT22;7351;51.194;4.098;2023-01-04T06:22:36;11.70;99.90
14529;DHT22;7351;51.194;4.098;2023-01-04T06:25:07;11.70;99.90
14529;DHT22;7351;51.194;4.098;2023-01-04T06:27:34;11.70;99.90
14529;DHT22;7351;51.194;4.098;2023-01-04T06:30:02;11.80;99.90
14529;DHT22;7351;51.194;4.098;2023-01-04T06:32:29;11.80;99.90
14529;DHT22;7351;51.194;4.098;2023-01-04T06:34:56;11.80;99.90
14529;DHT22;7351;51.194;4.098;2023-01-04T06:37:23;11.90;99.90
14529;DHT22;7351;51.194;4.098;2023-01-04T06:39:50;11.90;99.90
14529;DHT22;7351;51.194;4.098;2023-01-04T06:42:18;11.90;99.90
14529;DHT22;7351;51.194;4.098;2023-01-04T06:45:04;12.00;99.90
14529;DHT22;7351;51.194;4.098;2023-01-04T06:47:31;12.00;99.90
14529;DHT22;7351;51.194;4.098;2023-01-04T06:49:58;11.90;99.90
14529;DHT22;7351;51.194;4.098;2023-01-04T06:52:25;12.00;99.90
14529;DHT22;7351;51.194;4.098;2023-01-04T06:54:52;11.90;99.90
14529;DHT22;7351;51.194;4.098;2023-01-04T06:57:20;11.90;99.90
14529;DHT22;7351;51.194;4.098;2023-01-04T06:59:47;11.90;99.90
14529;DHT22;7351;51.194;4.098;2023-01-04T07:02:15;11.90;99.90
14529;DHT22;7351;51.194;4.098;2023-01-04T07:04:42;11.90;99.90
14529;DHT22;7351;51.194;4.098;2023-01-04T07:07:09;11.90;99.90
14529;DHT22;7351;51.194;4.098;2023-01-04T07:09:37;12.00;99.90
14529;DHT22;7351;51.194;4.098;2023-01-04T07:12:04;12.00;99.90
14529;DHT22;7351;51.194;4.098;2023-01-04T07:14:33;12.00;99.90
14529;DHT22;7351;51.194;4.098;2023-01-04T07:17:00;12.00;99.90
14529;DHT22;7351;51.194;4.098;2023-01-04T07:19:27;12.00;99.90
14529;DHT22;7351;51.194;4.098;2023-01-04T07:21:54;12.00;99.90
14529;DHT22;7351;51.194;4.098;2023-01-04T07:24:23;12.00;99.90
14529;DHT22;7351;51.194;4.098;2023-01-04T07:26:50;11.90;99.90
14529;DHT22;7351;51.194;4.098;2023-01-04T07:29:17;12.00;99.90
14529;DHT22;7351;51.194;4.098;2023-01-04T07:31:47;12.00;99.90
14529;DHT22;7351;51.194;4.098;2023-01-04T07:34:16;12.00;99.90
14529;DHT22;7351;51.194;4.098;2023-01-04T07:36:43;12.00;99.90
14529;DHT22;7351;51.194;4.098;2023-01-04T07:39:10;12.00;99.90
14529;DHT22;7351;51.194;4.098;2023-01-04T07:41:38;12.00;99.90
14529;DHT22;7351;51.194;4.098;2023-01-04T07:44:06;12.00;99.90
14529;DHT22;7351;51.194;4.098;2023-01-04T07:46:33;12.00;99.90
14529;DHT22;7351;51.194;4.098;2023-01-04T07:49:03;12.10;99.90
14529;DHT22;7351;51.194;4.098;2023-01-04T07:51:30;12.10;99.90
14529;DHT22;7351;51.194;4.098;2023-01-04T07:53:58;12.10;99.90
14529;DHT22;7351;51.194;4.098;2023-01-04T07:56:25;12.20;99.90
14529;DHT22;7351;51.194;4.098;2023-01-04T07:58:52;12.20;99.90
14529;DHT22;7351;51.194;4.098;2023-01-04T08:01:23;12.20;99.90
14529;DHT22;7351;51.194;4.098;2023-01-04T08:03:50;12.30;99.90
14529;DHT22;7351;51.194;4.098;2023-01-04T08:06:20;12.30;99.90
14529;DHT22;7351;51.194;4.098;2023-01-04T08:08:47;12.30;99.90
14529;DHT22;7351;51.194;4.098;2023-01-04T08:11:16;12.40;99.90
14529;DHT22;7351;51.194;4.098;2023-01-04T08:13:43;12.40;99.90
14529;DHT22;7351;51.194;4.098;2023-01-04T08:16:18;12.40;99.90
14529;DHT22;7351;51.194;4.098;2023-01-04T08:18:46;12.40;99.90
14529;DHT22;7351;51.194;4.098;2023-01-04T08:21:13;12.40;99.90
14529;DHT22;7351;51.194;4.098;2023-01-04T08:23:41;12.50;99.90
14529;DHT22;7351;51.194;4.098;2023-01-04T08:26:11;12.50;99.90
14529;DHT22;7351;51.194;4.098;2023-01-04T08:28:39;12.50;99.90
14529;DHT22;7351;51.194;4.098;2023-01-04T08:31:08;12.50;99.90
14529;DHT22;7351;51.194;4.098;2023-01-04T08:33:37;12.50;99.90
14529;DHT22;7351;51.194;4.098;2023-01-04T08:36:09;12.50;99.90
14529;DHT22;7351;51.194;4.098;2023-01-04T08:38:37;12.50;99.90
14529;DHT22;7351;51.194;4.098;2023-01-04T08:41:05;12.50;99.90
14529;DHT22;7351;51.194;4.098;2023-01-04T08:43:33;12.40;99.90
14529;DHT22;7351;51.194;4.098;2023-01-04T08:46:01;12.50;99.90
14529;DHT22;7351;51.194;4.098;2023-01-04T08:48:28;12.50;99.90
14529;DHT22;7351;51.194;4.098;2023-01-04T08:50:57;12.50;99.90
14529;DHT22;7351;51.194;4.098;2023-01-04T08:53:24;12.50;99.90
14529;DHT22;7351;51.194;4.098;2023-01-04T08:55:52;12.50;99.90
14529;DHT22;7351;51.194;4.098;2023-01-04T08:58:21;12.50;99.90
14529;DHT22;7351;51.194;4.098;2023-01-04T09:00:49;12.50;99.90
14529;DHT22;7351;51.194;4.098;2023-01-04T09:03:16;12.50;99.90
14529;DHT22;7351;51.194;4.098;2023-01-04T09:05:43;12.60;99.90
14529;DHT22;7351;51.194;4.098;2023-01-04T09:08:11;12.70;99.90
14529;DHT22;7351;51.194;4.098;2023-01-04T09:10:38;12.70;99.90
14529;DHT22;7351;51.194;4.098;2023-01-04T09:13:05;12.70;99.90
14529;DHT22;7351;51.194;4.098;2023-01-04T09:15:34;12.70;99.90
14529;DHT22;7351;51.194;4.098;2023-01-04T09:18:01;12.70;99.90
14529;DHT22;7351;51.194;4.098;2023-01-04T09:20:29;12.80;99.90
14529;DHT22;7351;51.194;4.098;2023-01-04T09:22:56;12.70;99.90
14529;DHT22;7351;51.194;4.098;2023-01-04T09:25:24;12.80;99.90
14529;DHT22;7351;51.194;4.098;2023-01-04T09:27:51;12.80;99.90
14529;DHT22;7351;51.194;4.098;2023-01-04T09:30:18;12.70;99.90
14529;DHT22;7351;51.194;4.098;2023-01-04T09:32:47;12.70;99.90
14529;DHT22;7351;51.194;4.098;2023-01-04T09:35:14;12.80;99.90
14529;DHT22;7351;51.194;4.098;2023-01-04T09:37:41;12.80;99.90
14529;DHT22;7351;51.194;4.098;2023-01-04T09:40:18;12.70;99.90
14529;DHT22;7351;51.194;4.098;2023-01-04T09:42:46;12.80;99.90
14529;DHT22;7351;51.194;4.098;2023-01-04T09:45:17;12.80;99.90
14529;DHT22;7351;51.194;4.098;2023-01-04T09:47:50;12.70;99.90
14529;DHT22;7351;51.194;4.098;2023-01-04T09:50:21;12.70;99.90
14529;DHT22;7351;51.194;4.098;2023-01-04T09:53:03;12.80;99.90
14529;DHT22;7351;51.194;4.098;2023-01-04T09:55:35;12.80;99.90
14529;DHT22;7351;51.194;4.098;2023-01-04T09:58:07;12.70;99.90
14529;DHT22;7351;51.194;4.098;2023-01-04T10:00:43;12.70;99.90
14529;DHT22;7351;51.194;4.098;2023-01-04T10:03:14;12.70;99.90
14529;DHT22;7351;51.194;4.098;2023-01-04T10:05:43;12.70;99.90
14529;DHT22;7351;51.194;4.098;2023-01-04T10:08:14;12.70;99.90
14529;DHT22;7351;51.194;4.098;2023-01-04T10:10:54;12.70;99.90
14529;DHT22;7351;51.194;4.098;2023-01-04T10:16:23;12.70;99.90
14529;DHT22;7351;51.194;4.098;2023-01-04T10:19:00;12.70;99.90
14529;DHT22;7351;51.194;4.098;2023-01-04T10:21:37;12.70;99.90
14529;DHT22;7351;51.194;4.098;2023-01-04T10:24:28;12.80;99.90
14529;DHT22;7351;51.194;4.098;2023-01-04T10:27:02;12.70;99.90
14529;DHT22;7351;51.194;4.098;2023-01-04T10:29:44;12.70;99.90
14529;DHT22;7351;51.194;4.098;2023-01-04T10:32:17;12.70;99.90
14529;DHT22;7351;51.194;4.098;2023-01-04T10:34:47;12.70;99.90
14529;DHT22;7351;51.194;4.098;2023-01-04T10:37:19;12.70;99.90
14529;DHT22;7351;51.194;4.098;2023-01-04T10:39:50;12.70;99.90
14529;DHT22;7351;51.194;4.098;2023-01-04T10:42:19;12.70;99.90
14529;DHT22;7351;51.194;4.098;2023-01-04T10:44:57;12.70;99.90
14529;DHT22;7351;51.194;4.098;2023-01-04T10:47:34;12.70;99.90
14529;DHT22;7351;51.194;4.098;2023-01-04T10:50:10;12.70;99.90
14529;DHT22;7351;51.194;4.098;2023-01-04T10:52:42;12.70;99.90
14529;DHT22;7351;51.194;4.098;2023-01-04T10:55:15;12.80;99.90
14529;DHT22;7351;51.194;4.098;2023-01-04T10:57:48;12.80;99.90
14529;DHT22;7351;51.194;4.098;2023-01-04T11:00:22;12.80;99.90
14529;DHT22;7351;51.194;4.098;2023-01-04T11:02:56;12.80;99.90
14529;DHT22;7351;51.194;4.098;2023-01-04T11:05:29;12.80;99.90
14529;DHT22;7351;51.194;4.098;2023-01-04T11:08:02;12.90;99.90
14529;DHT22;7351;51.194;4.098;2023-01-04T11:10:36;12.90;99.90
14529;DHT22;7351;51.194;4.098;2023-01-04T11:13:04;12.90;99.90
14529;DHT22;7351;51.194;4.098;2023-01-04T11:15:32;12.90;99.90
14529;DHT22;7351;51.194;4.098;2023-01-04T11:18:01;12.90;99.90
14529;DHT22;7351;51.194;4.098;2023-01-04T11:20:30;12.90;99.90
14529;DHT22;7351;51.194;4.098;2023-01-04T11:22:59;12.90;99.90
14529;DHT22;7351;51.194;4.098;2023-01-04T11:25:32;12.90;99.90
14529;DHT22;7351;51.194;4.098;2023-01-04T11:28:07;12.90;99.90
14529;DHT22;7351;51.194;4.098;2023-01-04T11:30:46;12.90;99.90
14529;DHT22;7351;51.194;4.098;2023-01-04T11:33:17;12.90;99.90
14529;DHT22;7351;51.194;4.098;2023-01-04T11:35:47;12.90;99.90
14529;DHT22;7351;51.194;4.098;2023-01-04T11:38:16;12.90;99.90
14529;DHT22;7351;51.194;4.098;2023-01-04T11:40:59;13.00;99.90
14529;DHT22;7351;51.194;4.098;2023-01-04T11:43:28;13.00;99.90
14529;DHT22;7351;51.194;4.098;2023-01-04T11:46:01;13.00;99.90
14529;DHT22;7351;51.194;4.098;2023-01-04T11:48:40;13.00;99.90
14529;DHT22;7351;51.194;4.098;2023-01-04T11:51:33;13.00;99.90
14529;DHT22;7351;51.194;4.098;2023-01-04T11:54:05;13.00;99.90
14529;DHT22;7351;51.194;4.098;2023-01-04T11:56:33;12.90;99.90
14529;DHT22;7351;51.194;4.098;2023-01-04T11:59:11;12.90;99.90
14529;DHT22;7351;51.194;4.098;2023-01-04T12:01:40;12.90;99.90
14529;DHT22;7351;51.194;4.098;2023-01-04T12:04:11;12.90;99.90
14529;DHT22;7351;51.194;4.098;2023-01-04T12:06:47;12.90;99.90
14529;DHT22;7351;51.194;4.098;2023-01-04T12:09:17;12.90;99.90
14529;DHT22;7351;51.194;4.098;2023-01-04T12:11:46;12.90;99.90
14529;DHT22;7351;51.194;4.098;2023-01-04T12:14:24;12.90;99.90
14529;DHT22;7351;51.194;4.098;2023-01-04T12:16:59;13.00;99.90
14529;DHT22;7351;51.194;4.098;2023-01-04T12:19:29;13.00;99.90
14529;DHT22;7351;51.194;4.098;2023-01-04T12:22:00;13.00;99.90
14529;DHT22;7351;51.194;4.098;2023-01-04T12:24:29;13.00;99.90
14529;DHT22;7351;51.194;4.098;2023-01-04T12:26:57;13.00;99.90
14529;DHT22;7351;51.194;4.098;2023-01-04T12:29:44;13.00;99.90
14529;DHT22;7351;51.194;4.098;2023-01-04T12:32:37;13.00;99.90
14529;DHT22;7351;51.194;4.098;2023-01-04T12:39:24;13.10;99.90
14529;DHT22;7351;51.194;4.098;2023-01-04T12:42:18;13.30;99.90
14529;DHT22;7351;51.194;4.098;2023-01-04T12:45:19;13.30;99.90
14529;DHT22;7351;51.194;4.098;2023-01-04T12:47:52;13.30;99.90
14529;DHT22;7351;51.194;4.098;2023-01-04T12:53:51;13.30;99.90
14529;DHT22;7351;51.194;4.098;2023-01-04T12:56:20;13.40;99.90
14529;DHT22;7351;51.194;4.098;2023-01-04T12:59:06;13.40;99.90
14529;DHT22;7351;51.194;4.098;2023-01-04T13:01:34;13.40;99.90
14529;DHT22;7351;51.194;4.098;2023-01-04T13:06:45;13.50;99.90
14529;DHT22;7351;51.194;4.098;2023-01-04T13:09:17;13.50;99.90
14529;DHT22;7351;51.194;4.098;2023-01-04T13:12:05;13.60;99.90
14529;DHT22;7351;51.194;4.098;2023-01-04T13:14:38;13.60;99.90
14529;DHT22;7351;51.194;4.098;2023-01-04T13:17:18;13.60;99.90
14529;DHT22;7351;51.194;4.098;2023-01-04T13:19:45;13.60;99.90
14529;DHT22;7351;51.194;4.098;2023-01-04T13:22:22;13.60;99.90
14529;DHT22;7351;51.194;4.098;2023-01-04T13:24:50;13.60;99.90
14529;DHT22;7351;51.194;4.098;2023-01-04T13:27:20;13.50;99.90
14529;DHT22;7351;51.194;4.098;2023-01-04T13:29:50;13.50;99.90
14529;DHT22;7351;51.194;4.098;2023-01-04T13:32:22;13.50;99.90
14529;DHT22;7351;51.194;4.098;2023-01-04T13:34:52;13.50;99.90
14529;DHT22;7351;51.194;4.098;2023-01-04T13:37:26;13.50;99.90
14529;DHT22;7351;51.194;4.098;2023-01-04T13:40:19;13.50;99.90
14529;DHT22;7351;51.194;4.098;2023-01-04T13:43:01;13.50;99.90
14529;DHT22;7351;51.194;4.098;2023-01-04T13:45:42;13.50;99.90
14529;DHT22;7351;51.194;4.098;2023-01-04T13:48:14;13.50;99.90
14529;DHT22;7351;51.194;4.098;2023-01-04T13:50:44;13.50;99.90
14529;DHT22;7351;51.194;4.098;2023-01-04T13:53:21;13.50;99.90
14529;DHT22;7351;51.194;4.098;2023-01-04T13:55:49;13.50;99.90
14529;DHT22;7351;51.194;4.098;2023-01-04T13:58:19;13.50;99.90
14529;DHT22;7351;51.194;4.098;2023-01-04T14:00:50;13.60;99.90
14529;DHT22;7351;51.194;4.098;2023-01-04T14:03:28;13.60;99.90
14529;DHT22;7351;51.194;4.098;2023-01-04T14:08:54;13.60;99.90
14529;DHT22;7351;51.194;4.098;2023-01-04T14:11:25;13.50;99.90
14529;DHT22;7351;51.194;4.098;2023-01-04T14:14:34;13.50;99.90
14529;DHT22;7351;51.194;4.098;2023-01-04T14:17:21;13.50;99.90
14529;DHT22;7351;51.194;4.098;2023-01-04T14:19:53;13.50;99.90
14529;DHT22;7351;51.194;4.098;2023-01-04T14:22:34;13.40;99.90
14529;DHT22;7351;51.194;4.098;2023-01-04T14:28:41;13.40;99.90
14529;DHT22;7351;51.194;4.098;2023-01-04T14:31:26;13.40;99.90
14529;DHT22;7351;51.194;4.098;2023-01-04T14:33:54;13.40;99.90
14529;DHT22;7351;51.194;4.098;2023-01-04T14:36:22;13.30;99.90
14529;DHT22;7351;51.194;4.098;2023-01-04T14:39:09;13.40;99.90
14529;DHT22;7351;51.194;4.098;2023-01-04T14:41:38;13.30;99.90
14529;DHT22;7351;51.194;4.098;2023-01-04T14:44:11;13.40;99.90
14529;DHT22;7351;51.194;4.098;2023-01-04T14:46:40;13.30;99.90
14529;DHT22;7351;51.194;4.098;2023-01-04T14:49:10;13.30;99.90
14529;DHT22;7351;51.194;4.098;2023-01-04T14:51:40;13.30;99.90
14529;DHT22;7351;51.194;4.098;2023-01-04T14:54:10;13.30;99.90
14529;DHT22;7351;51.194;4.098;2023-01-04T14:56:38;13.30;99.90
14529;DHT22;7351;51.194;4.098;2023-01-04T14:59:05;13.20;99.90
14529;DHT22;7351;51.194;4.098;2023-01-04T15:01:33;13.10;99.90
14529;DHT22;7351;51.194;4.098;2023-01-04T15:04:02;13.10;99.90
14529;DHT22;7351;51.194;4.098;2023-01-04T15:06:29;13.00;99.90
14529;DHT22;7351;51.194;4.098;2023-01-04T15:08:56;13.00;99.90
14529;DHT22;7351;51.194;4.098;2023-01-04T15:11:23;13.00;99.90
14529;DHT22;7351;51.194;4.098;2023-01-04T15:13:50;13.00;99.90
14529;DHT22;7351;51.194;4.098;2023-01-04T15:16:17;13.00;99.90
14529;DHT22;7351;51.194;4.098;2023-01-04T15:18:45;13.00;99.90
14529;DHT22;7351;51.194;4.098;2023-01-04T15:21:13;13.00;99.90
14529;DHT22;7351;51.194;4.098;2023-01-04T15:23:40;12.90;99.90
14529;DHT22;7351;51.194;4.098;2023-01-04T15:26:09;12.90;99.90
14529;DHT22;7351;51.194;4.098;2023-01-04T15:28:37;12.90;99.90
14529;DHT22;7351;51.194;4.098;2023-01-04T15:31:06;12.90;99.90
14529;DHT22;7351;51.194;4.098;2023-01-04T15:33:33;12.90;99.90
14529;DHT22;7351;51.194;4.098;2023-01-04T15:36:02;12.90;99.90
14529;DHT22;7351;51.194;4.098;2023-01-04T15:38:31;12.90;99.90
14529;DHT22;7351;51.194;4.098;2023-01-04T15:41:00;12.90;99.90
14529;DHT22;7351;51.194;4.098;2023-01-04T15:43:27;12.90;99.90
14529;DHT22;7351;51.194;4.098;2023-01-04T15:45:53;12.90;99.90
14529;DHT22;7351;51.194;4.098;2023-01-04T15:48:20;12.90;99.90
14529;DHT22;7351;51.194;4.098;2023-01-04T15:50:47;12.80;99.90
14529;DHT22;7351;51.194;4.098;2023-01-04T15:53:14;12.80;99.90
14529;DHT22;7351;51.194;4.098;2023-01-04T15:55:43;12.80;99.90
14529;DHT22;7351;51.194;4.098;2023-01-04T15:58:11;12.80;99.90
14529;DHT22;7351;51.194;4.098;2023-01-04T16:00:38;12.90;99.90
14529;DHT22;7351;51.194;4.098;2023-01-04T16:03:06;12.90;99.90
14529;DHT22;7351;51.194;4.098;2023-01-04T16:05:34;12.90;99.90
14529;DHT22;7351;51.194;4.098;2023-01-04T16:08:02;12.80;99.90
14529;DHT22;7351;51.194;4.098;2023-01-04T16:10:29;12.90;99.90
14529;DHT22;7351;51.194;4.098;2023-01-04T16:12:57;12.90;99.90
14529;DHT22;7351;51.194;4.098;2023-01-04T16:15:24;12.90;99.90
14529;DHT22;7351;51.194;4.098;2023-01-04T16:17:51;12.90;99.90
14529;DHT22;7351;51.194;4.098;2023-01-04T16:20:20;12.80;99.90
14529;DHT22;7351;51.194;4.098;2023-01-04T16:22:47;12.80;99.90
14529;DHT22;7351;51.194;4.098;2023-01-04T16:25:14;12.80;99.90
14529;DHT22;7351;51.194;4.098;2023-01-04T16:27:41;12.80;99.90
14529;DHT22;7351;51.194;4.098;2023-01-04T16:30:12;12.80;99.90
14529;DHT22;7351;51.194;4.098;2023-01-04T16:32:40;12.80;99.90
14529;DHT22;7351;51.194;4.098;2023-01-04T16:35:08;12.80;99.90